Cisco, Texas
Current Conditions -  °F | °C
As of 11:35 AM on Thursday 23 Oct 2014 (Local Time) from KBKD Reporting Station
Haze Haze  
Wind Chill: 75°   Ceiling: 6500
Heat Index: 75°   Visibility: 5mi
Dew Point: 58°   Wind: 6mph
Humidity: 55%   Direction: 180°S
Pressure: 30.15"   Gusts: NA
Location:  32.39°N, 98.98°W
Report Text: KBKD 231635Z AUTO 18005KT 5SM HZ OVC065 24/14 A3015 RMK AO2 T02390144
Loading
Personal Weather Stations






























Interactive Weather Map
Tropical Storm Tracking
New forecast layout! Learn more

10-Day Weather Forecast

Advertisements
Track Severe Weather on mobile